Time;durP1;ratioP1;P1;durP2;ratioP2;P2;SDS_P1;SDS_P2;PMS_P1;PMS_P2;Temp;Humidity;BMP_temperature;BMP_pressure;BME280_temperature;BME280_humidity;BME280_pressure;Samples;Min_cycle;Max_cycle;Signal;HPM_P1;HPM_P2
2023/07/02 00:03:59;;;;;;;8.18;3.00;;;17.10;99.90;;;;;;7356243;32;20595;-58
2023/07/02 00:08:01;;;;;;;5.75;3.08;;;17.10;99.90;;;;;;7353259;32;20134;-56
2023/07/02 00:12:03;;;;;;;6.22;3.15;;;17.10;99.90;;;;;;7357015;32;20283;-56
2023/07/02 00:16:05;;;;;;;4.82;2.62;;;17.00;99.90;;;;;;7357008;32;20262;-56
2023/07/02 00:20:15;;;;;;;6.25;3.12;;;17.00;99.90;;;;;;7350442;32;20238;-57
2023/07/02 00:24:17;;;;;;;6.40;3.00;;;17.00;99.90;;;;;;7355423;32;20166;-57
2023/07/02 00:28:19;;;;;;;8.65;3.42;;;16.90;99.90;;;;;;7349912;32;20692;-57
2023/07/02 00:32:20;;;;;;;6.87;3.45;;;17.00;99.90;;;;;;7353035;32;20532;-57
2023/07/02 00:36:22;;;;;;;6.37;3.23;;;17.00;99.90;;;;;;7354578;32;20560;-57
2023/07/02 00:40:24;;;;;;;6.55;3.58;;;16.90;99.90;;;;;;7353849;32;20135;-57
2023/07/02 00:44:25;;;;;;;6.10;2.97;;;16.90;99.90;;;;;;7355997;32;20134;-57
2023/07/02 00:48:27;;;;;;;6.87;3.30;;;16.90;99.90;;;;;;7346600;32;20269;-54
2023/07/02 00:52:29;;;;;;;7.15;3.50;;;16.90;99.90;;;;;;7352446;32;20127;-56
2023/07/02 00:56:30;;;;;;;8.65;3.55;;;16.80;99.90;;;;;;7355987;32;20119;-55
2023/07/02 01:00:32;;;;;;;7.07;3.12;;;16.80;99.90;;;;;;7354923;32;20154;-55
2023/07/02 01:04:34;;;;;;;9.00;3.33;;;16.70;99.90;;;;;;7354176;32;20134;-55
2023/07/02 01:08:36;;;;;;;7.50;3.78;;;16.70;99.90;;;;;;7356066;32;20778;-55
2023/07/02 01:12:39;;;;;;;6.22;3.40;;;16.70;99.90;;;;;;7355276;32;20119;-55
2023/07/02 01:16:43;;;;;;;8.05;3.78;;;16.80;99.90;;;;;;7351569;32;20176;-55
2023/07/02 01:20:47;;;;;;;8.00;3.90;;;16.60;99.90;;;;;;7351533;32;20430;-55
2023/07/02 01:24:53;;;;;;;12.60;4.93;;;16.60;99.90;;;;;;7349371;32;20480;-56
2023/07/02 01:28:54;;;;;;;13.95;4.68;;;16.60;99.90;;;;;;7352687;32;20210;-55
2023/07/02 01:32:56;;;;;;;12.30;4.82;;;16.60;99.90;;;;;;7352730;32;20103;-56
2023/07/02 01:36:58;;;;;;;14.80;5.62;;;16.50;99.90;;;;;;7347943;32;20137;-55
2023/07/02 01:41:00;;;;;;;12.27;5.10;;;16.40;99.90;;;;;;7350372;32;20133;-56
2023/07/02 01:45:02;;;;;;;10.25;5.57;;;16.40;99.90;;;;;;7347217;32;20128;-56
2023/07/02 01:49:03;;;;;;;14.80;6.10;;;16.30;99.90;;;;;;7346928;32;20142;-56
2023/07/02 01:53:05;;;;;;;16.52;7.28;;;16.20;99.90;;;;;;7350565;32;20187;-56
2023/07/02 01:57:07;;;;;;;12.82;6.50;;;16.00;99.90;;;;;;7350669;32;20123;-56
2023/07/02 02:01:08;;;;;;;13.43;7.18;;;16.00;99.90;;;;;;7344253;32;20574;-56
2023/07/02 02:05:10;;;;;;;20.67;7.07;;;16.00;99.90;;;;;;7354276;32;20522;-56
2023/07/02 02:09:12;;;;;;;19.25;7.50;;;16.00;99.90;;;;;;7351844;32;20680;-56
2023/07/02 02:13:14;;;;;;;19.60;7.82;;;15.90;99.90;;;;;;7334314;32;20873;-56
2023/07/02 02:17:16;;;;;;;17.67;7.12;;;16.00;99.90;;;;;;7350483;32;20569;-56
2023/07/02 02:21:18;;;;;;;16.58;7.95;;;15.90;99.90;;;;;;7349145;32;20229;-56
2023/07/02 02:25:20;;;;;;;16.37;7.72;;;15.90;99.90;;;;;;7345300;32;20119;-57
2023/07/02 02:29:22;;;;;;;13.85;7.70;;;15.90;99.90;;;;;;7352437;32;20132;-57
2023/07/02 02:33:23;;;;;;;15.93;7.75;;;15.90;99.90;;;;;;7354711;32;20251;-56
2023/07/02 02:37:25;;;;;;;16.52;8.48;;;15.90;99.90;;;;;;7354086;32;20137;-56
2023/07/02 02:41:27;;;;;;;15.52;8.00;;;15.80;99.90;;;;;;7351568;32;20123;-57
2023/07/02 02:45:29;;;;;;;19.30;8.88;;;15.80;99.90;;;;;;7348375;32;20765;-56
2023/07/02 02:49:31;;;;;;;19.35;9.95;;;15.80;99.90;;;;;;7347044;32;20126;-56
2023/07/02 02:53:32;;;;;;;18.87;9.50;;;15.80;99.90;;;;;;7355573;32;20596;-55
2023/07/02 02:57:34;;;;;;;17.37;9.07;;;15.80;99.90;;;;;;7350132;32;20125;-57
2023/07/02 03:01:36;;;;;;;21.23;9.65;;;15.80;99.90;;;;;;7345745;32;20095;-56
2023/07/02 03:05:38;;;;;;;18.08;8.80;;;15.80;99.90;;;;;;7353426;32;20111;-56
2023/07/02 03:09:39;;;;;;;18.00;9.60;;;15.80;99.90;;;;;;7356559;32;20561;-56
2023/07/02 03:13:41;;;;;;;22.10;9.88;;;15.80;99.90;;;;;;7351040;32;20103;-57
2023/07/02 03:17:43;;;;;;;25.48;9.68;;;15.90;99.90;;;;;;7347219;32;20574;-56
2023/07/02 03:21:45;;;;;;;20.73;10.50;;;15.80;99.90;;;;;;7355864;32;20225;-56
2023/07/02 03:25:46;;;;;;;22.98;10.00;;;15.80;99.90;;;;;;7357634;32;20107;-56
2023/07/02 03:29:48;;;;;;;20.67;10.55;;;15.80;99.90;;;;;;7356215;32;20177;-56
2023/07/02 03:33:50;;;;;;;21.83;11.10;;;15.80;99.90;;;;;;7354838;32;20831;-57
2023/07/02 03:37:51;;;;;;;20.98;11.02;;;15.80;99.90;;;;;;7356150;32;20202;-57
2023/07/02 03:41:53;;;;;;;26.35;12.57;;;15.90;99.90;;;;;;7353928;32;20103;-56
2023/07/02 03:45:57;;;;;;;27.10;12.48;;;15.90;99.90;;;;;;7354871;32;20334;-56
2023/07/02 03:49:59;;;;;;;22.73;11.40;;;15.80;99.90;;;;;;7354266;32;20103;-56
2023/07/02 03:54:00;;;;;;;24.20;12.18;;;15.80;99.90;;;;;;7356847;32;20115;-56
2023/07/02 03:58:02;;;;;;;18.85;11.40;;;15.80;99.90;;;;;;7356107;32;20119;-56
2023/07/02 04:02:04;;;;;;;24.20;12.18;;;15.80;99.90;;;;;;7356740;32;20127;-56
2023/07/02 04:06:06;;;;;;;24.83;13.70;;;15.80;99.90;;;;;;7348472;32;20114;-56
2023/07/02 04:10:08;;;;;;;26.23;13.38;;;15.90;99.90;;;;;;7356772;32;20149;-56
2023/07/02 04:14:10;;;;;;;24.35;12.55;;;15.80;99.90;;;;;;7353576;32;20107;-56
2023/07/02 04:18:11;;;;;;;29.45;13.50;;;15.80;99.90;;;;;;7356120;32;20104;-55
2023/07/02 04:22:13;;;;;;;29.33;14.30;;;15.90;99.90;;;;;;7356472;32;20108;-56
2023/07/02 04:26:15;;;;;;;26.02;13.98;;;15.90;99.90;;;;;;7356985;32;20218;-56
2023/07/02 04:30:36;;;;;;;26.15;13.40;;;15.90;99.90;;;;;;7354040;32;20129;-56
2023/07/02 04:34:38;;;;;;;28.80;13.75;;;15.90;99.90;;;;;;7354903;32;20497;-56
2023/07/02 04:38:40;;;;;;;28.75;14.30;;;15.90;99.90;;;;;;7354125;32;20201;-56
2023/07/02 04:42:46;;;;;;;29.37;15.27;;;15.90;99.90;;;;;;7352729;32;20131;-56
2023/07/02 04:46:48;;;;;;;30.17;13.73;;;15.90;99.90;;;;;;7353848;32;20277;-57
2023/07/02 04:50:50;;;;;;;27.83;14.55;;;15.90;99.90;;;;;;7347687;32;20153;-56
2023/07/02 04:54:52;;;;;;;28.25;14.93;;;15.90;99.90;;;;;;7355085;32;20129;-56
2023/07/02 04:58:54;;;;;;;33.17;15.32;;;16.00;99.90;;;;;;7351009;32;20255;-55
2023/07/02 05:02:56;;;;;;;26.20;14.98;;;16.00;99.90;;;;;;7343894;32;20253;-56
2023/07/02 05:06:59;;;;;;;29.58;15.80;;;16.00;99.90;;;;;;7349907;32;20130;-56
2023/07/02 05:11:01;;;;;;;32.13;15.55;;;16.10;99.90;;;;;;7349247;32;20104;-56
2023/07/02 05:15:03;;;;;;;32.53;17.05;;;16.10;99.90;;;;;;7354513;32;20149;-56
2023/07/02 05:19:04;;;;;;;31.20;16.15;;;16.10;99.90;;;;;;7353729;32;20191;-56
2023/07/02 05:23:06;;;;;;;31.12;15.77;;;16.30;99.90;;;;;;7353687;32;20498;-55
2023/07/02 05:27:08;;;;;;;34.13;17.02;;;16.40;99.90;;;;;;7346511;32;20100;-56
2023/07/02 05:31:10;;;;;;;29.48;16.15;;;16.40;99.90;;;;;;7350885;32;20108;-57
2023/07/02 05:35:12;;;;;;;36.30;16.85;;;16.40;99.90;;;;;;7351471;32;20554;-56
2023/07/02 05:39:14;;;;;;;28.52;16.02;;;16.40;99.90;;;;;;7351130;32;20103;-56
2023/07/02 05:43:15;;;;;;;29.52;16.55;;;16.50;99.90;;;;;;7353766;32;20280;-56
2023/07/02 05:47:17;;;;;;;38.65;17.27;;;16.50;99.90;;;;;;7341599;32;20324;-56
2023/07/02 05:51:23;;;;;;;28.80;16.52;;;16.50;99.90;;;;;;7349283;32;20152;-56
2023/07/02 05:55:25;;;;;;;33.90;17.60;;;16.50;99.90;;;;;;7351785;32;20107;-56
2023/07/02 05:59:26;;;;;;;31.42;17.27;;;16.50;99.90;;;;;;7351638;32;20148;-56
2023/07/02 06:03:28;;;;;;;31.90;16.08;;;16.60;99.90;;;;;;7348728;32;20155;-56
2023/07/02 06:07:30;;;;;;;33.25;17.52;;;16.70;99.90;;;;;;7344859;32;20107;-57
2023/07/02 06:11:32;;;;;;;34.15;15.48;;;16.90;99.90;;;;;;7348946;32;20307;-56
2023/07/02 06:15:33;;;;;;;31.70;16.02;;;17.10;99.90;;;;;;7353466;32;20194;-56
2023/07/02 06:19:36;;;;;;;27.58;14.93;;;17.20;99.90;;;;;;7349880;32;20616;-56
2023/07/02 06:23:45;;;;;;;35.65;16.15;;;17.40;99.90;;;;;;7353818;32;20126;-56
2023/07/02 06:27:47;;;;;;;32.60;15.50;;;17.60;99.90;;;;;;7351524;32;20119;-56
2023/07/02 06:31:49;;;;;;;28.58;15.10;;;17.70;99.90;;;;;;7349570;32;20103;-57
2023/07/02 06:35:50;;;;;;;31.12;14.60;;;17.70;99.90;;;;;;7355747;32;20175;-57
2023/07/02 06:39:52;;;;;;;27.40;15.13;;;17.70;99.90;;;;;;7357353;32;20604;-57
2023/07/02 06:43:54;;;;;;;26.23;14.65;;;17.90;99.90;;;;;;7354943;32;20522;-57
2023/07/02 06:47:56;;;;;;;24.92;13.13;;;17.80;99.90;;;;;;7349933;32;20191;-57
2023/07/02 06:51:57;;;;;;;28.02;13.73;;;18.20;99.90;;;;;;7354296;32;20458;-58
2023/07/02 06:55:59;;;;;;;27.37;13.90;;;18.10;99.90;;;;;;7355824;32;20190;-58
2023/07/02 07:00:01;;;;;;;24.25;13.50;;;18.40;99.90;;;;;;7355534;32;20193;-57
2023/07/02 07:04:03;;;;;;;28.50;14.35;;;18.70;99.90;;;;;;7353433;32;20230;-57
2023/07/02 07:08:05;;;;;;;26.58;13.75;;;19.30;99.90;;;;;;7357400;32;20127;-57
2023/07/02 07:12:07;;;;;;;32.33;14.38;;;19.60;99.90;;;;;;7349425;32;20443;-57
2023/07/02 07:16:08;;;;;;;28.48;13.18;;;19.40;99.90;;;;;;7350519;32;20190;-58
2023/07/02 07:20:11;;;;;;;28.55;14.43;;;19.30;99.90;;;;;;7349194;32;20491;-58
2023/07/02 07:24:12;;;;;;;29.30;13.95;;;19.50;99.90;;;;;;7353309;32;20180;-59
2023/07/02 07:28:15;;;;;;;25.40;12.57;;;19.40;99.90;;;;;;7350578;32;20119;-59
2023/07/02 07:32:17;;;;;;;26.77;13.05;;;19.40;99.90;;;;;;7345894;32;20095;-59
2023/07/02 07:36:19;;;;;;;25.05;12.13;;;19.40;99.90;;;;;;7347544;32;20096;-60
2023/07/02 07:40:21;;;;;;;25.12;12.65;;;19.40;99.90;;;;;;7350589;32;20593;-61
2023/07/02 07:44:23;;;;;;;23.30;12.65;;;19.40;99.90;;;;;;7351216;32;20525;-59
2023/07/02 07:48:25;;;;;;;28.30;13.38;;;19.60;99.90;;;;;;7355579;32;20114;-57
2023/07/02 07:52:27;;;;;;;28.15;12.48;;;19.30;99.90;;;;;;7355199;32;20171;-57
2023/07/02 07:56:29;;;;;;;24.87;12.40;;;19.50;99.90;;;;;;7351587;32;20112;-56
2023/07/02 08:00:30;;;;;;;23.98;11.43;;;19.60;99.90;;;;;;7343078;32;20124;-57
2023/07/02 08:04:32;;;;;;;18.75;10.32;;;19.30;99.90;;;;;;7350437;32;20291;-57
2023/07/02 08:08:34;;;;;;;19.98;8.93;;;18.80;99.90;;;;;;7353586;32;20714;-58
2023/07/02 08:12:36;;;;;;;20.85;8.80;;;18.70;99.90;;;;;;7351738;32;20141;-58
2023/07/02 08:16:38;;;;;;;21.08;9.75;;;18.50;99.90;;;;;;7355852;32;20505;-57
2023/07/02 08:20:39;;;;;;;22.27;9.45;;;18.50;99.90;;;;;;7353867;32;20470;-58
2023/07/02 08:24:41;;;;;;;19.70;9.82;;;18.70;99.90;;;;;;7343387;32;20116;-58
2023/07/02 08:28:44;;;;;;;21.33;9.93;;;18.90;99.90;;;;;;7347435;32;20156;-57
2023/07/02 08:32:47;;;;;;;20.10;10.38;;;19.00;99.90;;;;;;7348272;32;20699;-57
2023/07/02 08:36:48;;;;;;;21.45;10.25;;;19.30;99.90;;;;;;7346795;32;20517;-56
2023/07/02 08:40:50;;;;;;;23.50;10.82;;;19.20;99.90;;;;;;7351117;32;20596;-57
2023/07/02 08:44:53;;;;;;;20.27;10.60;;;18.80;99.90;;;;;;7338357;32;20100;-57
2023/07/02 08:48:55;;;;;;;23.05;10.30;;;18.60;99.90;;;;;;7349470;32;20126;-57
2023/07/02 08:52:57;;;;;;;23.33;11.52;;;18.50;99.90;;;;;;7341288;32;20611;-57
2023/07/02 08:57:01;;;;;;;24.23;11.63;;;18.60;99.90;;;;;;7352835;32;20156;-57
2023/07/02 09:01:11;;;;;;;21.80;10.98;;;18.70;99.90;;;;;;7344734;32;20126;-58
2023/07/02 09:05:13;;;;;;;22.25;11.50;;;18.90;99.90;;;;;;7350276;32;20123;-58
2023/07/02 09:09:15;;;;;;;22.95;11.12;;;19.00;99.90;;;;;;7349033;32;20596;-57
2023/07/02 09:13:17;;;;;;;24.83;10.98;;;19.20;99.90;;;;;;7351908;32;20233;-58
2023/07/02 09:17:18;;;;;;;18.85;10.77;;;20.00;99.90;;;;;;7351373;32;20139;-59
2023/07/02 09:21:21;;;;;;;19.05;9.23;;;20.30;99.90;;;;;;7350506;32;20971;-57
2023/07/02 09:25:37;;;;;;;22.77;9.18;;;20.40;99.90;;;;;;7349382;32;20102;-58
2023/07/02 09:29:39;;;;;;;17.05;8.85;;;19.80;99.90;;;;;;7346628;32;20482;-58
2023/07/02 09:33:40;;;;;;;21.08;9.30;;;19.50;99.90;;;;;;7345631;32;20877;-58
2023/07/02 09:37:43;;;;;;;19.30;9.65;;;19.10;99.90;;;;;;7347346;32;20095;-58
2023/07/02 09:41:49;;;;;;;19.00;9.82;;;19.20;99.90;;;;;;7349217;32;20114;-59
2023/07/02 09:45:56;;;;;;;26.27;11.05;;;19.20;99.90;;;;;;7348163;32;20493;-58
2023/07/02 09:50:05;;;;;;;20.42;10.52;;;19.30;99.90;;;;;;7350051;32;20297;-58
2023/07/02 09:54:07;;;;;;;20.88;11.63;;;19.50;99.90;;;;;;7346233;32;20189;-59
2023/07/02 09:58:10;;;;;;;24.12;11.48;;;19.80;99.90;;;;;;7345987;32;20525;-59
2023/07/02 10:02:13;;;;;;;23.90;11.65;;;19.40;99.90;;;;;;7348801;32;20608;-56
2023/07/02 10:06:15;;;;;;;20.52;11.10;;;19.00;99.90;;;;;;7353468;32;20099;-55
2023/07/02 10:10:29;;;;;;;28.77;11.27;;;18.80;99.90;;;;;;7351181;32;20261;-57
2023/07/02 10:14:45;;;;;;;21.08;10.18;;;18.60;99.90;;;;;;7349733;32;20104;-57
2023/07/02 10:18:47;;;;;;;25.52;10.05;;;18.50;99.90;;;;;;7352841;32;20240;-57
2023/07/02 10:22:54;;;;;;;23.40;9.57;;;18.80;99.90;;;;;;7344523;32;20175;-57
2023/07/02 10:27:05;;;;;;;17.90;9.15;;;19.50;99.90;;;;;;7355308;32;20138;-56
2023/07/02 10:31:20;;;;;;;23.33;9.70;;;19.90;99.90;;;;;;7358035;32;20280;-57
2023/07/02 10:35:22;;;;;;;18.37;8.52;;;19.80;99.90;;;;;;7353777;32;20111;-57
2023/07/02 10:39:24;;;;;;;19.70;8.73;;;19.60;99.90;;;;;;7352258;32;20152;-57
2023/07/02 10:43:28;;;;;;;17.08;8.15;;;18.80;99.90;;;;;;7338853;32;20438;-56
2023/07/02 10:47:32;;;;;;;16.17;7.90;;;18.70;99.90;;;;;;7344376;32;20830;-58
2023/07/02 10:51:33;;;;;;;14.00;6.87;;;18.50;99.90;;;;;;7352083;32;20341;-57
2023/07/02 10:55:35;;;;;;;16.52;7.25;;;18.40;99.90;;;;;;7360178;32;20119;-57
2023/07/02 10:59:37;;;;;;;13.75;6.62;;;18.50;99.90;;;;;;7358047;32;20115;-56
2023/07/02 11:03:39;;;;;;;10.80;6.80;;;18.50;99.90;;;;;;7357000;32;20184;-56
2023/07/02 11:07:42;;;;;;;13.95;6.03;;;18.60;99.90;;;;;;7347352;32;20129;-57
2023/07/02 11:11:58;;;;;;;15.13;6.62;;;19.00;99.90;;;;;;7359768;32;20107;-58
2023/07/02 11:16:01;;;;;;;18.08;6.62;;;19.40;99.90;;;;;;7360371;32;20623;-57
2023/07/02 11:20:05;;;;;;;15.38;6.62;;;19.90;99.90;;;;;;7343770;32;20760;-57
2023/07/02 11:24:10;;;;;;;19.10;6.90;;;20.30;99.90;;;;;;7359439;32;20664;-57
2023/07/02 11:28:12;;;;;;;12.95;6.35;;;20.70;99.90;;;;;;7352659;32;20108;-57
2023/07/02 11:32:15;;;;;;;15.73;7.40;;;20.70;99.90;;;;;;7353292;32;20195;-57
2023/07/02 11:36:22;;;;;;;10.95;6.70;;;20.60;99.90;;;;;;7346565;32;20197;-56
2023/07/02 11:40:23;;;;;;;17.50;7.07;;;20.90;99.90;;;;;;7350908;32;20106;-56
2023/07/02 11:44:25;;;;;;;14.05;6.55;;;20.90;99.90;;;;;;7351802;32;20179;-57
2023/07/02 11:48:27;;;;;;;17.35;6.70;;;21.20;99.90;;;;;;7339630;32;20183;-56
2023/07/02 11:52:29;;;;;;;17.17;7.30;;;21.20;99.90;;;;;;7354216;32;20253;-57
2023/07/02 11:56:31;;;;;;;17.50;7.12;;;21.10;99.90;;;;;;7350040;32;20590;-57
2023/07/02 12:00:33;;;;;;;13.18;6.47;;;21.30;99.90;;;;;;7346430;32;20119;-57
2023/07/02 12:04:34;;;;;;;12.55;6.10;;;20.80;99.90;;;;;;7353944;32;20250;-57
2023/07/02 12:08:36;;;;;;;14.18;6.85;;;20.60;99.90;;;;;;7357646;32;20100;-57
2023/07/02 12:12:38;;;;;;;13.18;6.53;;;20.70;99.90;;;;;;7357653;32;20111;-56
2023/07/02 12:16:40;;;;;;;14.13;6.85;;;20.80;99.90;;;;;;7351301;32;20125;-57
2023/07/02 12:20:42;;;;;;;18.12;7.30;;;20.80;99.90;;;;;;7355272;32;20127;-58
2023/07/02 12:24:43;;;;;;;18.08;7.95;;;20.50;99.90;;;;;;7357754;32;20123;-57
2023/07/02 12:28:45;;;;;;;16.60;7.82;;;21.40;99.90;;;;;;7354719;32;20123;-58
2023/07/02 12:32:47;;;;;;;15.07;7.78;;;22.60;99.90;;;;;;7345451;32;20530;-57
2023/07/02 12:36:49;;;;;;;12.77;7.25;;;22.70;98.90;;;;;;7349143;32;20179;-57
2023/07/02 12:40:51;;;;;;;16.92;7.57;;;22.70;99.50;;;;;;7355954;32;20217;-57
2023/07/02 12:44:52;;;;;;;16.20;7.75;;;23.00;99.40;;;;;;7351392;32;20096;-57
2023/07/02 12:48:54;;;;;;;16.58;7.45;;;23.40;97.20;;;;;;7341581;32;20155;-57
2023/07/02 12:52:56;;;;;;;15.35;6.78;;;23.80;98.80;;;;;;7346606;32;20153;-57
2023/07/02 12:56:57;;;;;;;15.40;7.43;;;23.00;96.50;;;;;;7349176;32;20209;-57
2023/07/02 13:00:59;;;;;;;15.10;8.02;;;22.80;96.70;;;;;;7345674;32;20122;-57
2023/07/02 13:05:01;;;;;;;15.10;7.07;;;22.10;97.50;;;;;;7357092;32;20159;-57
2023/07/02 13:09:03;;;;;;;16.35;7.03;;;22.40;98.70;;;;;;7349216;32;20150;-57
2023/07/02 13:13:05;;;;;;;14.55;7.20;;;22.10;98.10;;;;;;7353056;32;20621;-58
2023/07/02 13:17:23;;;;;;;13.45;7.28;;;22.10;99.90;;;;;;7344477;32;20136;-57
2023/07/02 13:21:25;;;;;;;18.40;7.50;;;22.10;97.80;;;;;;7356166;32;20135;-57
2023/07/02 13:25:27;;;;;;;19.35;7.53;;;21.90;99.00;;;;;;7356242;32;20605;-57
2023/07/02 13:29:29;;;;;;;17.30;7.37;;;22.30;99.60;;;;;;7356867;32;20099;-58
2023/07/02 13:33:31;;;;;;;14.02;7.53;;;22.20;97.60;;;;;;7349998;32;20154;-57
2023/07/02 13:37:32;;;;;;;15.35;8.30;;;22.00;99.40;;;;;;7349268;32;20100;-57
2023/07/02 13:41:34;;;;;;;17.95;7.35;;;22.20;99.70;;;;;;7352169;32;20577;-57
2023/07/02 13:45:36;;;;;;;16.75;7.70;;;21.90;99.90;;;;;;7356624;32;20126;-57
2023/07/02 13:49:38;;;;;;;15.80;7.57;;;22.50;99.50;;;;;;7355649;32;20103;-57
2023/07/02 13:53:40;;;;;;;16.70;7.45;;;22.70;99.40;;;;;;7355796;32;20509;-58
2023/07/02 13:57:42;;;;;;;16.77;7.07;;;22.90;98.10;;;;;;7353063;32;20182;-58
2023/07/02 14:01:45;;;;;;;18.45;7.40;;;22.50;99.80;;;;;;7353662;32;20531;-57
2023/07/02 14:05:47;;;;;;;16.40;8.20;;;23.00;99.90;;;;;;7356479;32;20137;-57
2023/07/02 14:09:49;;;;;;;17.58;7.43;;;23.30;98.90;;;;;;7346270;32;20226;-58
2023/07/02 14:13:50;;;;;;;15.63;7.82;;;23.40;96.90;;;;;;7347783;32;20819;-57
2023/07/02 14:17:52;;;;;;;14.77;8.23;;;22.70;96.50;;;;;;7349155;32;20476;-58
2023/07/02 14:21:54;;;;;;;23.20;8.55;;;22.10;98.50;;;;;;7355971;32;20455;-57
2023/07/02 14:25:56;;;;;;;19.85;7.82;;;21.50;99.30;;;;;;7349114;32;20167;-58
2023/07/02 14:29:57;;;;;;;16.52;7.85;;;21.40;99.90;;;;;;7349232;32;20198;-57
2023/07/02 14:33:59;;;;;;;18.70;8.77;;;21.50;99.90;;;;;;7349413;32;20131;-57
2023/07/02 14:38:01;;;;;;;15.98;8.82;;;22.10;99.90;;;;;;7337678;32;20177;-57
2023/07/02 14:42:03;;;;;;;18.48;8.80;;;22.10;99.90;;;;;;7341241;32;20103;-58
2023/07/02 14:46:05;;;;;;;20.58;8.55;;;21.70;99.90;;;;;;7352562;32;20107;-58
2023/07/02 14:50:07;;;;;;;20.33;9.23;;;21.80;99.90;;;;;;7360436;32;20126;-58
2023/07/02 14:54:09;;;;;;;19.05;8.70;;;21.90;99.90;;;;;;7354014;32;20296;-57
2023/07/02 14:58:11;;;;;;;19.00;9.65;;;22.60;99.90;;;;;;7357150;32;20108;-58
2023/07/02 15:02:13;;;;;;;17.35;8.95;;;23.10;99.90;;;;;;7354274;32;20718;-57
2023/07/02 15:06:17;;;;;;;14.70;8.35;;;22.90;98.00;;;;;;7358370;32;20096;-58
2023/07/02 15:10:19;;;;;;;17.98;9.38;;;22.30;99.90;;;;;;7346107;32;20191;-58
2023/07/02 15:14:21;;;;;;;20.98;9.70;;;21.70;99.90;;;;;;7354817;32;20128;-57
2023/07/02 15:18:22;;;;;;;24.67;10.10;;;22.00;99.90;;;;;;7359178;32;20119;-58
2023/07/02 15:22:24;;;;;;;16.92;8.70;;;22.40;99.90;;;;;;7352615;32;20104;-57
2023/07/02 15:26:26;;;;;;;15.93;8.48;;;22.50;99.20;;;;;;7354070;32;20186;-59
2023/07/02 15:30:28;;;;;;;18.52;8.80;;;22.50;98.60;;;;;;7350149;32;20174;-57
2023/07/02 15:34:30;;;;;;;18.55;9.23;;;22.20;98.90;;;;;;7353331;32;20130;-57
2023/07/02 15:38:31;;;;;;;19.27;8.70;;;22.00;99.50;;;;;;7352271;32;20188;-57
2023/07/02 15:42:33;;;;;;;22.62;9.73;;;21.80;99.50;;;;;;7352071;32;20743;-58
2023/07/02 15:46:35;;;;;;;19.65;8.57;;;21.80;99.90;;;;;;7351883;32;20096;-57
2023/07/02 15:50:37;;;;;;;19.50;8.95;;;21.60;99.90;;;;;;7352098;32;20352;-57
2023/07/02 15:54:38;;;;;;;19.98;8.90;;;21.40;99.90;;;;;;7359102;32;20225;-58
2023/07/02 15:58:40;;;;;;;20.70;8.75;;;21.50;99.90;;;;;;7357775;32;20125;-57
2023/07/02 16:02:43;;;;;;;20.88;8.48;;;21.60;99.90;;;;;;7352263;32;20162;-59
2023/07/02 16:06:48;;;;;;;18.60;8.30;;;21.80;99.90;;;;;;7355286;32;20128;-57
2023/07/02 16:10:50;;;;;;;17.20;8.80;;;21.90;99.30;;;;;;7341867;32;20186;-57
2023/07/02 16:14:52;;;;;;;15.73;8.45;;;21.80;99.40;;;;;;7358061;32;20195;-57
2023/07/02 16:18:53;;;;;;;19.40;9.23;;;21.50;99.40;;;;;;7342197;32;20522;-57
2023/07/02 16:22:55;;;;;;;17.62;8.55;;;21.30;98.60;;;;;;7348894;32;20095;-57
2023/07/02 16:26:57;;;;;;;17.40;8.93;;;21.40;99.00;;;;;;7358087;32;20529;-57
2023/07/02 16:30:59;;;;;;;19.98;8.75;;;21.40;98.10;;;;;;7357797;32;20266;-57
2023/07/02 16:35:01;;;;;;;16.25;8.07;;;21.50;99.90;;;;;;7347824;32;20099;-57
2023/07/02 16:39:03;;;;;;;16.58;8.20;;;21.50;98.80;;;;;;7354219;32;20225;-57
2023/07/02 16:43:04;;;;;;;15.55;7.82;;;21.50;99.30;;;;;;7342634;32;20567;-57
2023/07/02 16:47:06;;;;;;;16.98;8.02;;;21.60;99.20;;;;;;7356976;32;20103;-57
2023/07/02 16:51:08;;;;;;;17.42;9.15;;;21.60;98.60;;;;;;7351238;32;20103;-57
2023/07/02 16:55:10;;;;;;;17.20;8.32;;;21.30;99.20;;;;;;7357161;32;20658;-57
2023/07/02 16:59:16;;;;;;;18.23;7.97;;;21.50;98.30;;;;;;7353553;32;20817;-57
2023/07/02 17:03:17;;;;;;;17.65;8.55;;;21.40;99.10;;;;;;7343225;32;20526;-57
2023/07/02 17:07:19;;;;;;;15.73;8.30;;;21.30;99.90;;;;;;7352337;32;20183;-57
2023/07/02 17:11:21;;;;;;;18.70;8.77;;;21.20;98.70;;;;;;7344756;32;20162;-57
2023/07/02 17:15:23;;;;;;;17.58;7.75;;;21.20;99.90;;;;;;7343878;32;20164;-57
2023/07/02 17:19:30;;;;;;;17.70;8.48;;;21.20;99.30;;;;;;7348865;32;20154;-57
2023/07/02 17:23:32;;;;;;;20.92;8.80;;;21.40;99.60;;;;;;7346244;32;20123;-57
2023/07/02 17:27:34;;;;;;;18.67;8.55;;;21.30;98.80;;;;;;7350411;32;20144;-57
2023/07/02 17:31:36;;;;;;;17.20;8.50;;;21.20;99.90;;;;;;7353982;32;20153;-57
2023/07/02 17:35:42;;;;;;;18.25;9.05;;;21.10;99.80;;;;;;7354692;32;20367;-57
2023/07/02 17:39:45;;;;;;;19.05;8.57;;;21.10;99.90;;;;;;7355429;32;20127;-57
2023/07/02 17:43:46;;;;;;;17.25;8.48;;;21.10;99.50;;;;;;7349783;32;20126;-57
2023/07/02 17:47:48;;;;;;;14.93;7.68;;;21.00;99.90;;;;;;7355857;32;20096;-57
2023/07/02 17:51:50;;;;;;;15.88;7.93;;;20.90;99.90;;;;;;7356544;32;20213;-57
2023/07/02 17:55:52;;;;;;;15.95;8.02;;;20.90;99.90;;;;;;7352877;32;20122;-58
2023/07/02 17:59:55;;;;;;;17.12;8.60;;;20.80;99.90;;;;;;7342651;32;20431;-58
2023/07/02 18:03:57;;;;;;;16.67;8.27;;;20.70;99.90;;;;;;7349152;32;20586;-58
2023/07/02 18:07:59;;;;;;;13.88;7.35;;;20.60;99.90;;;;;;7347812;32;20206;-58
2023/07/02 18:12:01;;;;;;;19.33;8.35;;;20.50;99.90;;;;;;7347712;32;20103;-58
2023/07/02 18:16:03;;;;;;;13.93;7.97;;;20.50;99.90;;;;;;7351793;32;20677;-58
2023/07/02 18:20:06;;;;;;;18.87;8.25;;;20.40;99.90;;;;;;7356183;32;20134;-58
2023/07/02 18:24:07;;;;;;;16.17;7.80;;;20.40;99.90;;;;;;7347637;32;20104;-57
2023/07/02 18:28:12;;;;;;;22.20;8.90;;;20.40;99.90;;;;;;7356948;32;20126;-58
2023/07/02 18:32:14;;;;;;;18.23;8.45;;;20.30;99.90;;;;;;7359623;32;20749;-58
2023/07/02 18:36:16;;;;;;;15.40;8.27;;;20.30;99.90;;;;;;7358994;32;20111;-57
2023/07/02 18:40:21;;;;;;;17.73;8.60;;;20.30;99.90;;;;;;7360051;32;20487;-57
2023/07/02 18:44:23;;;;;;;16.80;8.32;;;20.10;99.90;;;;;;7359964;32;20115;-58
2023/07/02 18:48:25;;;;;;;21.33;9.50;;;20.00;99.90;;;;;;7359720;32;20103;-57
2023/07/02 18:52:27;;;;;;;24.35;8.70;;;20.00;99.90;;;;;;7356678;32;20551;-58
2023/07/02 18:56:29;;;;;;;21.75;8.30;;;19.90;99.90;;;;;;7360636;32;20108;-58
2023/07/02 19:00:30;;;;;;;21.35;9.35;;;19.90;99.90;;;;;;7359588;32;20183;-58
2023/07/02 19:04:33;;;;;;;20.77;9.32;;;19.90;99.90;;;;;;7360564;32;20140;-58
2023/07/02 19:08:35;;;;;;;21.48;9.38;;;19.70;99.90;;;;;;7346671;32;20096;-58
2023/07/02 19:12:37;;;;;;;21.60;9.23;;;19.80;99.90;;;;;;7351545;32;20724;-58
2023/07/02 19:16:39;;;;;;;23.20;9.02;;;19.70;99.90;;;;;;7359994;32;20507;-58
2023/07/02 19:20:40;;;;;;;18.33;8.50;;;19.70;99.90;;;;;;7359764;32;20511;-58
2023/07/02 19:24:42;;;;;;;16.40;8.52;;;19.80;99.90;;;;;;7359469;32;20126;-58
2023/07/02 19:28:44;;;;;;;19.27;9.02;;;19.70;99.90;;;;;;7359620;32;20127;-58
2023/07/02 19:32:46;;;;;;;18.05;9.15;;;19.60;99.90;;;;;;7355545;32;20226;-58
2023/07/02 19:36:48;;;;;;;17.30;9.00;;;19.60;99.90;;;;;;7355585;32;20183;-58
2023/07/02 19:40:57;;;;;;;19.42;9.15;;;19.50;99.90;;;;;;7351947;32;20210;-57
2023/07/02 19:45:00;;;;;;;21.67;9.55;;;19.50;99.90;;;;;;7356815;32;20100;-58
2023/07/02 19:49:01;;;;;;;20.00;8.70;;;19.50;99.90;;;;;;7358205;32;20145;-58
2023/07/02 19:53:05;;;;;;;22.33;9.60;;;19.40;99.90;;;;;;7352686;32;20107;-56
2023/07/02 19:57:13;;;;;;;19.95;9.43;;;19.30;99.90;;;;;;7358694;32;20498;-56
2023/07/02 20:01:16;;;;;;;19.50;9.30;;;19.30;99.90;;;;;;7352708;32;20494;-57
2023/07/02 20:05:17;;;;;;;17.42;8.85;;;19.30;99.90;;;;;;7352372;32;20103;-55
2023/07/02 20:09:19;;;;;;;18.02;8.95;;;19.20;99.90;;;;;;7356354;32;20202;-57
2023/07/02 20:13:21;;;;;;;20.15;9.77;;;19.20;99.90;;;;;;7348567;32;20150;-56
2023/07/02 20:17:25;;;;;;;24.02;9.10;;;19.10;99.90;;;;;;7352763;32;20126;-56
2023/07/02 20:21:27;;;;;;;15.85;9.32;;;19.10;99.90;;;;;;7349775;32;20166;-56
2023/07/02 20:25:29;;;;;;;21.98;9.40;;;19.10;99.90;;;;;;7352816;32;20103;-56
2023/07/02 20:29:51;;;;;;;17.58;9.32;;;19.10;99.90;;;;;;7357738;32;20100;-56
2023/07/02 20:33:53;;;;;;;19.05;8.45;;;18.90;99.90;;;;;;7355266;32;20193;-57
2023/07/02 20:37:55;;;;;;;16.65;8.68;;;18.90;99.90;;;;;;7353281;32;20169;-56
2023/07/02 20:41:57;;;;;;;19.12;7.97;;;18.80;99.90;;;;;;7356850;32;20111;-56
2023/07/02 20:46:00;;;;;;;22.13;8.45;;;18.90;99.90;;;;;;7352469;32;20153;-56